sensor_id;sensor_type;location;lat;lon;timestamp;temperature;humidity
23609;DHT22;11982;50.810;4.442;2024-03-17T00:01:05;7.70;99.90
23609;DHT22;11982;50.810;4.442;2024-03-17T00:03:31;7.60;99.90
23609;DHT22;11982;50.810;4.442;2024-03-17T00:06:01;7.60;99.90
23609;DHT22;11982;50.810;4.442;2024-03-17T00:08:27;7.70;99.90
23609;DHT22;11982;50.810;4.442;2024-03-17T00:10:53;7.60;99.90
23609;DHT22;11982;50.810;4.442;2024-03-17T00:13:20;7.70;99.90
23609;DHT22;11982;50.810;4.442;2024-03-17T00:15:47;7.70;99.90
23609;DHT22;11982;50.810;4.442;2024-03-17T00:18:13;7.60;99.90
23609;DHT22;11982;50.810;4.442;2024-03-17T00:20:40;7.50;99.90
23609;DHT22;11982;50.810;4.442;2024-03-17T00:23:06;7.40;99.90
23609;DHT22;11982;50.810;4.442;2024-03-17T00:25:33;7.40;99.90
23609;DHT22;11982;50.810;4.442;2024-03-17T00:28:00;7.50;99.90
23609;DHT22;11982;50.810;4.442;2024-03-17T00:30:26;7.50;99.90
23609;DHT22;11982;50.810;4.442;2024-03-17T00:32:51;7.50;99.90
23609;DHT22;11982;50.810;4.442;2024-03-17T00:35:17;7.50;99.90
23609;DHT22;11982;50.810;4.442;2024-03-17T00:37:49;7.60;99.90
23609;DHT22;11982;50.810;4.442;2024-03-17T00:40:17;7.60;99.90
23609;DHT22;11982;50.810;4.442;2024-03-17T00:42:43;7.60;99.90
23609;DHT22;11982;50.810;4.442;2024-03-17T00:45:10;7.60;99.90
23609;DHT22;11982;50.810;4.442;2024-03-17T00:47:37;7.50;99.90
23609;DHT22;11982;50.810;4.442;2024-03-17T00:50:03;7.40;99.90
23609;DHT22;11982;50.810;4.442;2024-03-17T00:52:30;7.50;99.90
23609;DHT22;11982;50.810;4.442;2024-03-17T00:54:55;7.50;99.90
23609;DHT22;11982;50.810;4.442;2024-03-17T00:57:21;7.60;99.90
23609;DHT22;11982;50.810;4.442;2024-03-17T00:59:47;7.70;99.90
23609;DHT22;11982;50.810;4.442;2024-03-17T01:02:14;7.60;99.90
23609;DHT22;11982;50.810;4.442;2024-03-17T01:04:42;7.60;99.90
23609;DHT22;11982;50.810;4.442;2024-03-17T01:07:09;7.60;99.90
23609;DHT22;11982;50.810;4.442;2024-03-17T01:09:35;7.60;99.90
23609;DHT22;11982;50.810;4.442;2024-03-17T01:12:01;7.70;99.90
23609;DHT22;11982;50.810;4.442;2024-03-17T01:14:27;7.70;99.90
23609;DHT22;11982;50.810;4.442;2024-03-17T01:16:54;7.70;99.90
23609;DHT22;11982;50.810;4.442;2024-03-17T01:19:19;7.90;99.90
23609;DHT22;11982;50.810;4.442;2024-03-17T01:21:45;7.90;99.90
23609;DHT22;11982;50.810;4.442;2024-03-17T01:24:11;7.90;99.90
23609;DHT22;11982;50.810;4.442;2024-03-17T01:26:37;7.90;99.90
23609;DHT22;11982;50.810;4.442;2024-03-17T01:29:02;8.00;99.90
23609;DHT22;11982;50.810;4.442;2024-03-17T01:31:28;8.20;99.90
23609;DHT22;11982;50.810;4.442;2024-03-17T01:33:54;8.30;99.90
23609;DHT22;11982;50.810;4.442;2024-03-17T01:36:20;8.30;99.90
23609;DHT22;11982;50.810;4.442;2024-03-17T01:38:45;8.40;99.90
23609;DHT22;11982;50.810;4.442;2024-03-17T01:41:11;8.40;99.90
23609;DHT22;11982;50.810;4.442;2024-03-17T01:43:38;8.50;99.90
23609;DHT22;11982;50.810;4.442;2024-03-17T01:46:04;8.60;99.90
23609;DHT22;11982;50.810;4.442;2024-03-17T01:48:31;8.70;99.90
23609;DHT22;11982;50.810;4.442;2024-03-17T01:50:57;8.50;99.90
23609;DHT22;11982;50.810;4.442;2024-03-17T01:53:24;8.50;99.90
23609;DHT22;11982;50.810;4.442;2024-03-17T01:55:51;8.60;99.90
23609;DHT22;11982;50.810;4.442;2024-03-17T01:58:20;8.80;99.90
23609;DHT22;11982;50.810;4.442;2024-03-17T02:00:49;8.70;99.90
23609;DHT22;11982;50.810;4.442;2024-03-17T02:03:14;8.60;99.90
23609;DHT22;11982;50.810;4.442;2024-03-17T02:05:40;8.70;99.90
23609;DHT22;11982;50.810;4.442;2024-03-17T02:08:06;8.80;99.90
23609;DHT22;11982;50.810;4.442;2024-03-17T02:10:33;9.00;99.90
23609;DHT22;11982;50.810;4.442;2024-03-17T02:12:59;8.80;99.90
23609;DHT22;11982;50.810;4.442;2024-03-17T02:15:25;8.70;99.90
23609;DHT22;11982;50.810;4.442;2024-03-17T02:17:51;8.60;99.90
23609;DHT22;11982;50.810;4.442;2024-03-17T02:20:17;8.60;99.90
23609;DHT22;11982;50.810;4.442;2024-03-17T02:22:43;8.70;99.90
23609;DHT22;11982;50.810;4.442;2024-03-17T02:25:09;8.70;99.90
23609;DHT22;11982;50.810;4.442;2024-03-17T02:27:36;8.70;99.90
23609;DHT22;11982;50.810;4.442;2024-03-17T02:30:05;8.60;99.90
23609;DHT22;11982;50.810;4.442;2024-03-17T02:32:35;8.70;99.90
23609;DHT22;11982;50.810;4.442;2024-03-17T02:35:01;8.80;99.90
23609;DHT22;11982;50.810;4.442;2024-03-17T02:37:27;8.80;99.90
23609;DHT22;11982;50.810;4.442;2024-03-17T02:39:53;8.80;99.90
23609;DHT22;11982;50.810;4.442;2024-03-17T02:42:19;8.70;99.90
23609;DHT22;11982;50.810;4.442;2024-03-17T02:44:44;8.70;99.90
23609;DHT22;11982;50.810;4.442;2024-03-17T02:47:11;8.80;99.90
23609;DHT22;11982;50.810;4.442;2024-03-17T02:49:40;8.90;99.90
23609;DHT22;11982;50.810;4.442;2024-03-17T02:52:09;8.80;99.90
23609;DHT22;11982;50.810;4.442;2024-03-17T02:54:36;8.70;99.90
23609;DHT22;11982;50.810;4.442;2024-03-17T02:57:03;8.60;99.90
23609;DHT22;11982;50.810;4.442;2024-03-17T02:59:28;8.60;99.90
23609;DHT22;11982;50.810;4.442;2024-03-17T03:01:54;8.60;99.90
23609;DHT22;11982;50.810;4.442;2024-03-17T03:04:20;8.70;99.90
23609;DHT22;11982;50.810;4.442;2024-03-17T03:06:46;8.70;99.90
23609;DHT22;11982;50.810;4.442;2024-03-17T03:09:11;8.70;99.90
23609;DHT22;11982;50.810;4.442;2024-03-17T03:11:46;8.60;99.90
23609;DHT22;11982;50.810;4.442;2024-03-17T03:14:12;8.60;99.90
23609;DHT22;11982;50.810;4.442;2024-03-17T03:16:38;8.50;99.90
23609;DHT22;11982;50.810;4.442;2024-03-17T03:19:04;8.60;99.90
23609;DHT22;11982;50.810;4.442;2024-03-17T03:21:31;8.60;99.90
23609;DHT22;11982;50.810;4.442;2024-03-17T03:23:56;8.60;99.90
23609;DHT22;11982;50.810;4.442;2024-03-17T03:26:22;8.60;99.90
23609;DHT22;11982;50.810;4.442;2024-03-17T03:28:49;8.70;99.90
23609;DHT22;11982;50.810;4.442;2024-03-17T03:31:15;8.70;99.90
23609;DHT22;11982;50.810;4.442;2024-03-17T03:33:42;8.50;99.90
23609;DHT22;11982;50.810;4.442;2024-03-17T03:36:12;8.50;99.90
23609;DHT22;11982;50.810;4.442;2024-03-17T03:38:38;8.60;99.90
23609;DHT22;11982;50.810;4.442;2024-03-17T03:41:08;8.60;99.90
23609;DHT22;11982;50.810;4.442;2024-03-17T03:43:34;8.70;99.90
23609;DHT22;11982;50.810;4.442;2024-03-17T03:46:01;8.70;99.90
23609;DHT22;11982;50.810;4.442;2024-03-17T03:48:27;8.60;99.90
23609;DHT22;11982;50.810;4.442;2024-03-17T03:50:53;8.60;99.90
23609;DHT22;11982;50.810;4.442;2024-03-17T03:53:20;8.60;99.90
23609;DHT22;11982;50.810;4.442;2024-03-17T03:55:46;8.60;99.90
23609;DHT22;11982;50.810;4.442;2024-03-17T03:58:11;8.40;99.90
23609;DHT22;11982;50.810;4.442;2024-03-17T04:00:38;8.40;99.90
23609;DHT22;11982;50.810;4.442;2024-03-17T04:03:05;8.30;99.90
23609;DHT22;11982;50.810;4.442;2024-03-17T04:05:31;8.20;99.90
23609;DHT22;11982;50.810;4.442;2024-03-17T04:07:58;8.10;99.90
23609;DHT22;11982;50.810;4.442;2024-03-17T04:10:24;8.00;99.90
23609;DHT22;11982;50.810;4.442;2024-03-17T04:12:51;7.90;99.90
23609;DHT22;11982;50.810;4.442;2024-03-17T04:15:17;7.90;99.90
23609;DHT22;11982;50.810;4.442;2024-03-17T04:17:43;7.80;99.90
23609;DHT22;11982;50.810;4.442;2024-03-17T04:20:09;7.70;99.90
23609;DHT22;11982;50.810;4.442;2024-03-17T04:22:36;7.70;99.90
23609;DHT22;11982;50.810;4.442;2024-03-17T04:25:02;7.60;99.90
23609;DHT22;11982;50.810;4.442;2024-03-17T04:27:29;7.60;99.90
23609;DHT22;11982;50.810;4.442;2024-03-17T04:29:59;7.70;99.90
23609;DHT22;11982;50.810;4.442;2024-03-17T04:32:25;7.50;99.90
23609;DHT22;11982;50.810;4.442;2024-03-17T04:34:54;7.40;99.90
23609;DHT22;11982;50.810;4.442;2024-03-17T04:37:19;7.40;99.90
23609;DHT22;11982;50.810;4.442;2024-03-17T04:39:46;7.40;99.90
23609;DHT22;11982;50.810;4.442;2024-03-17T04:42:14;7.40;99.90
23609;DHT22;11982;50.810;4.442;2024-03-17T04:44:40;7.40;99.90
23609;DHT22;11982;50.810;4.442;2024-03-17T04:47:06;7.40;99.90
23609;DHT22;11982;50.810;4.442;2024-03-17T04:49:43;7.50;99.90
23609;DHT22;11982;50.810;4.442;2024-03-17T04:52:10;7.70;99.90
23609;DHT22;11982;50.810;4.442;2024-03-17T04:54:35;7.50;99.90
23609;DHT22;11982;50.810;4.442;2024-03-17T04:57:02;7.40;99.90
23609;DHT22;11982;50.810;4.442;2024-03-17T04:59:28;7.40;99.90
23609;DHT22;11982;50.810;4.442;2024-03-17T05:01:54;7.30;99.90
23609;DHT22;11982;50.810;4.442;2024-03-17T05:04:20;7.30;99.90
23609;DHT22;11982;50.810;4.442;2024-03-17T05:06:46;7.20;99.90
23609;DHT22;11982;50.810;4.442;2024-03-17T05:09:16;7.30;99.90
23609;DHT22;11982;50.810;4.442;2024-03-17T05:11:41;7.40;99.90
23609;DHT22;11982;50.810;4.442;2024-03-17T05:14:07;7.50;99.90
23609;DHT22;11982;50.810;4.442;2024-03-17T05:16:33;7.50;99.90
23609;DHT22;11982;50.810;4.442;2024-03-17T05:18:59;7.40;99.90
23609;DHT22;11982;50.810;4.442;2024-03-17T05:21:25;7.40;99.90
23609;DHT22;11982;50.810;4.442;2024-03-17T05:23:52;7.40;99.90
23609;DHT22;11982;50.810;4.442;2024-03-17T05:26:18;7.40;99.90
23609;DHT22;11982;50.810;4.442;2024-03-17T05:28:44;7.40;99.90
23609;DHT22;11982;50.810;4.442;2024-03-17T05:31:10;7.60;99.90
23609;DHT22;11982;50.810;4.442;2024-03-17T05:33:35;7.70;99.90
23609;DHT22;11982;50.810;4.442;2024-03-17T05:36:02;7.80;99.90
23609;DHT22;11982;50.810;4.442;2024-03-17T05:38:30;7.80;99.90
23609;DHT22;11982;50.810;4.442;2024-03-17T05:43:23;8.00;99.90
23609;DHT22;11982;50.810;4.442;2024-03-17T05:45:50;8.00;99.90
23609;DHT22;11982;50.810;4.442;2024-03-17T05:48:17;7.90;99.90
23609;DHT22;11982;50.810;4.442;2024-03-17T05:50:42;7.90;99.90
23609;DHT22;11982;50.810;4.442;2024-03-17T05:53:08;8.00;99.90
23609;DHT22;11982;50.810;4.442;2024-03-17T05:55:37;8.20;99.90
23609;DHT22;11982;50.810;4.442;2024-03-17T05:58:03;8.40;99.90
23609;DHT22;11982;50.810;4.442;2024-03-17T06:00:29;8.50;99.90
23609;DHT22;11982;50.810;4.442;2024-03-17T06:02:56;8.50;99.90
23609;DHT22;11982;50.810;4.442;2024-03-17T06:05:22;8.50;99.90
23609;DHT22;11982;50.810;4.442;2024-03-17T06:07:48;8.50;99.90
23609;DHT22;11982;50.810;4.442;2024-03-17T06:10:14;8.50;99.90
23609;DHT22;11982;50.810;4.442;2024-03-17T06:12:39;8.60;99.90
23609;DHT22;11982;50.810;4.442;2024-03-17T06:15:05;8.60;99.90
23609;DHT22;11982;50.810;4.442;2024-03-17T06:17:32;8.60;99.90
23609;DHT22;11982;50.810;4.442;2024-03-17T06:19:57;8.80;99.90
23609;DHT22;11982;50.810;4.442;2024-03-17T06:22:23;8.90;99.90
23609;DHT22;11982;50.810;4.442;2024-03-17T06:24:50;9.00;99.90
23609;DHT22;11982;50.810;4.442;2024-03-17T06:27:15;8.90;99.90
23609;DHT22;11982;50.810;4.442;2024-03-17T06:29:41;9.00;99.90
23609;DHT22;11982;50.810;4.442;2024-03-17T06:32:08;9.10;99.90
23609;DHT22;11982;50.810;4.442;2024-03-17T06:34:34;9.00;99.90
23609;DHT22;11982;50.810;4.442;2024-03-17T06:36:59;9.10;99.90
23609;DHT22;11982;50.810;4.442;2024-03-17T06:39:25;9.10;99.90
23609;DHT22;11982;50.810;4.442;2024-03-17T06:41:51;9.20;99.90
23609;DHT22;11982;50.810;4.442;2024-03-17T06:44:17;9.30;99.90
23609;DHT22;11982;50.810;4.442;2024-03-17T06:46:42;9.30;99.90
23609;DHT22;11982;50.810;4.442;2024-03-17T06:49:09;9.20;99.90
23609;DHT22;11982;50.810;4.442;2024-03-17T06:51:35;9.10;99.90
23609;DHT22;11982;50.810;4.442;2024-03-17T06:54:01;9.30;99.90
23609;DHT22;11982;50.810;4.442;2024-03-17T06:56:26;9.40;99.90
23609;DHT22;11982;50.810;4.442;2024-03-17T06:58:52;9.40;99.90
23609;DHT22;11982;50.810;4.442;2024-03-17T07:01:19;9.40;99.90
23609;DHT22;11982;50.810;4.442;2024-03-17T07:03:45;9.40;99.90
23609;DHT22;11982;50.810;4.442;2024-03-17T07:06:10;9.20;99.90
23609;DHT22;11982;50.810;4.442;2024-03-17T07:08:36;9.40;99.90
23609;DHT22;11982;50.810;4.442;2024-03-17T07:11:06;9.60;99.90
23609;DHT22;11982;50.810;4.442;2024-03-17T07:13:34;9.80;99.90
23609;DHT22;11982;50.810;4.442;2024-03-17T07:16:00;9.90;99.90
23609;DHT22;11982;50.810;4.442;2024-03-17T07:18:27;10.00;99.90
23609;DHT22;11982;50.810;4.442;2024-03-17T07:20:56;10.20;99.90
23609;DHT22;11982;50.810;4.442;2024-03-17T07:23:22;10.20;99.90
23609;DHT22;11982;50.810;4.442;2024-03-17T07:25:53;9.90;99.90
23609;DHT22;11982;50.810;4.442;2024-03-17T07:28:19;10.00;99.90
23609;DHT22;11982;50.810;4.442;2024-03-17T07:30:49;10.00;99.90
23609;DHT22;11982;50.810;4.442;2024-03-17T07:33:15;9.90;99.90
23609;DHT22;11982;50.810;4.442;2024-03-17T07:36:07;10.00;99.90
23609;DHT22;11982;50.810;4.442;2024-03-17T07:38:34;10.00;99.90
23609;DHT22;11982;50.810;4.442;2024-03-17T07:41:02;10.20;99.90
23609;DHT22;11982;50.810;4.442;2024-03-17T07:43:30;10.30;99.90
23609;DHT22;11982;50.810;4.442;2024-03-17T07:46:07;10.30;99.90
23609;DHT22;11982;50.810;4.442;2024-03-17T07:48:34;10.30;99.90
23609;DHT22;11982;50.810;4.442;2024-03-17T07:51:03;10.40;99.90
23609;DHT22;11982;50.810;4.442;2024-03-17T07:53:36;10.60;99.90
23609;DHT22;11982;50.810;4.442;2024-03-17T07:56:06;10.80;99.90
23609;DHT22;11982;50.810;4.442;2024-03-17T07:58:33;10.90;99.90
23609;DHT22;11982;50.810;4.442;2024-03-17T08:01:00;11.00;99.90
23609;DHT22;11982;50.810;4.442;2024-03-17T08:03:30;11.00;99.90
23609;DHT22;11982;50.810;4.442;2024-03-17T08:05:57;11.30;99.90
23609;DHT22;11982;50.810;4.442;2024-03-17T08:08:23;11.70;99.90
23609;DHT22;11982;50.810;4.442;2024-03-17T08:10:49;11.90;99.90
23609;DHT22;11982;50.810;4.442;2024-03-17T08:13:19;12.20;99.90
23609;DHT22;11982;50.810;4.442;2024-03-17T08:15:46;12.50;99.90
23609;DHT22;11982;50.810;4.442;2024-03-17T08:18:12;12.50;99.90
23609;DHT22;11982;50.810;4.442;2024-03-17T08:20:39;12.40;99.90
23609;DHT22;11982;50.810;4.442;2024-03-17T08:23:05;12.40;99.90
23609;DHT22;11982;50.810;4.442;2024-03-17T08:25:34;12.40;99.90
23609;DHT22;11982;50.810;4.442;2024-03-17T08:28:01;12.60;99.90
23609;DHT22;11982;50.810;4.442;2024-03-17T08:30:27;12.50;99.90
23609;DHT22;11982;50.810;4.442;2024-03-17T08:32:53;12.50;99.90
23609;DHT22;11982;50.810;4.442;2024-03-17T08:35:18;12.50;99.90
23609;DHT22;11982;50.810;4.442;2024-03-17T08:37:44;12.70;99.90
23609;DHT22;11982;50.810;4.442;2024-03-17T08:40:11;12.60;99.90
23609;DHT22;11982;50.810;4.442;2024-03-17T08:42:37;12.80;99.90
23609;DHT22;11982;50.810;4.442;2024-03-17T08:45:03;12.70;99.90
23609;DHT22;11982;50.810;4.442;2024-03-17T08:47:29;12.80;99.90
23609;DHT22;11982;50.810;4.442;2024-03-17T08:49:55;12.60;99.90
23609;DHT22;11982;50.810;4.442;2024-03-17T08:52:21;12.40;99.90
23609;DHT22;11982;50.810;4.442;2024-03-17T08:54:47;12.40;99.90
23609;DHT22;11982;50.810;4.442;2024-03-17T08:57:14;12.60;99.90
23609;DHT22;11982;50.810;4.442;2024-03-17T08:59:39;12.70;99.90
23609;DHT22;11982;50.810;4.442;2024-03-17T09:02:05;12.70;99.90
23609;DHT22;11982;50.810;4.442;2024-03-17T09:04:37;12.90;99.90
23609;DHT22;11982;50.810;4.442;2024-03-17T09:07:02;12.90;99.90
23609;DHT22;11982;50.810;4.442;2024-03-17T09:09:29;12.80;99.90
23609;DHT22;11982;50.810;4.442;2024-03-17T09:11:55;12.80;99.90
23609;DHT22;11982;50.810;4.442;2024-03-17T09:14:21;13.00;99.90
23609;DHT22;11982;50.810;4.442;2024-03-17T09:16:47;13.40;99.90
23609;DHT22;11982;50.810;4.442;2024-03-17T09:19:13;13.40;99.90
23609;DHT22;11982;50.810;4.442;2024-03-17T09:21:39;13.40;99.90
23609;DHT22;11982;50.810;4.442;2024-03-17T09:24:08;13.50;99.90
23609;DHT22;11982;50.810;4.442;2024-03-17T09:26:34;13.60;99.90
23609;DHT22;11982;50.810;4.442;2024-03-17T09:29:02;13.40;99.90
23609;DHT22;11982;50.810;4.442;2024-03-17T09:31:28;13.40;99.90
23609;DHT22;11982;50.810;4.442;2024-03-17T09:33:55;13.30;99.90
23609;DHT22;11982;50.810;4.442;2024-03-17T09:36:21;13.50;99.90
23609;DHT22;11982;50.810;4.442;2024-03-17T09:38:47;13.40;99.90
23609;DHT22;11982;50.810;4.442;2024-03-17T09:41:31;13.30;99.90
23609;DHT22;11982;50.810;4.442;2024-03-17T09:43:57;13.10;99.90
23609;DHT22;11982;50.810;4.442;2024-03-17T09:46:24;13.20;99.90
23609;DHT22;11982;50.810;4.442;2024-03-17T09:48:51;13.00;99.90
23609;DHT22;11982;50.810;4.442;2024-03-17T09:51:23;13.00;99.90
23609;DHT22;11982;50.810;4.442;2024-03-17T09:53:49;13.00;99.90
23609;DHT22;11982;50.810;4.442;2024-03-17T09:56:20;13.20;99.90
23609;DHT22;11982;50.810;4.442;2024-03-17T09:58:47;12.90;99.90
23609;DHT22;11982;50.810;4.442;2024-03-17T10:01:13;12.80;99.90
23609;DHT22;11982;50.810;4.442;2024-03-17T10:03:49;12.80;99.90
23609;DHT22;11982;50.810;4.442;2024-03-17T10:06:18;12.80;99.90
23609;DHT22;11982;50.810;4.442;2024-03-17T10:11:14;12.70;99.90
23609;DHT22;11982;50.810;4.442;2024-03-17T10:13:44;12.80;99.90
23609;DHT22;11982;50.810;4.442;2024-03-17T10:18:48;13.30;99.90
23609;DHT22;11982;50.810;4.442;2024-03-17T10:21:27;13.60;99.90
23609;DHT22;11982;50.810;4.442;2024-03-17T10:24:28;13.70;99.90
23609;DHT22;11982;50.810;4.442;2024-03-17T10:26:56;13.70;99.90
23609;DHT22;11982;50.810;4.442;2024-03-17T10:29:28;13.20;99.90
23609;DHT22;11982;50.810;4.442;2024-03-17T10:32:02;13.40;99.90
23609;DHT22;11982;50.810;4.442;2024-03-17T10:34:28;13.50;99.90
23609;DHT22;11982;50.810;4.442;2024-03-17T10:37:18;13.60;99.90
23609;DHT22;11982;50.810;4.442;2024-03-17T10:39:53;13.60;99.90
23609;DHT22;11982;50.810;4.442;2024-03-17T10:42:27;13.70;99.90
23609;DHT22;11982;50.810;4.442;2024-03-17T10:44:54;13.80;99.90
23609;DHT22;11982;50.810;4.442;2024-03-17T10:47:22;13.90;99.90
23609;DHT22;11982;50.810;4.442;2024-03-17T10:49:53;13.80;99.90
23609;DHT22;11982;50.810;4.442;2024-03-17T10:52:19;13.80;99.90
23609;DHT22;11982;50.810;4.442;2024-03-17T10:54:49;13.90;99.90
23609;DHT22;11982;50.810;4.442;2024-03-17T10:57:27;13.80;99.90
23609;DHT22;11982;50.810;4.442;2024-03-17T10:59:55;13.90;99.90
23609;DHT22;11982;50.810;4.442;2024-03-17T11:02:24;14.10;99.90
23609;DHT22;11982;50.810;4.442;2024-03-17T11:04:55;14.20;99.90
23609;DHT22;11982;50.810;4.442;2024-03-17T11:07:22;14.00;99.90
23609;DHT22;11982;50.810;4.442;2024-03-17T11:09:51;14.20;99.90
23609;DHT22;11982;50.810;4.442;2024-03-17T11:12:40;14.40;99.90
23609;DHT22;11982;50.810;4.442;2024-03-17T11:20:36;15.30;99.90
23609;DHT22;11982;50.810;4.442;2024-03-17T11:23:05;15.50;99.90
23609;DHT22;11982;50.810;4.442;2024-03-17T11:28:00;15.70;99.90
23609;DHT22;11982;50.810;4.442;2024-03-17T11:30:42;16.00;99.90
23609;DHT22;11982;50.810;4.442;2024-03-17T11:41:38;16.30;99.90
23609;DHT22;11982;50.810;4.442;2024-03-17T11:46:57;16.30;99.90
23609;DHT22;11982;50.810;4.442;2024-03-17T11:49:32;16.30;99.90
23609;DHT22;11982;50.810;4.442;2024-03-17T11:52:02;16.60;99.90
23609;DHT22;11982;50.810;4.442;2024-03-17T11:54:32;16.80;99.90
23609;DHT22;11982;50.810;4.442;2024-03-17T11:59:28;16.90;99.90
23609;DHT22;11982;50.810;4.442;2024-03-17T12:01:55;17.10;99.90
23609;DHT22;11982;50.810;4.442;2024-03-17T12:04:22;17.30;99.90
23609;DHT22;11982;50.810;4.442;2024-03-17T12:06:52;17.30;98.80
23609;DHT22;11982;50.810;4.442;2024-03-17T12:09:28;17.20;96.90
23609;DHT22;11982;50.810;4.442;2024-03-17T12:12:20;16.60;99.90
23609;DHT22;11982;50.810;4.442;2024-03-17T12:14:47;16.50;99.90
23609;DHT22;11982;50.810;4.442;2024-03-17T12:17:20;16.90;99.90
23609;DHT22;11982;50.810;4.442;2024-03-17T12:19:47;17.30;99.90
23609;DHT22;11982;50.810;4.442;2024-03-17T12:22:21;17.40;99.90
23609;DHT22;11982;50.810;4.442;2024-03-17T12:24:51;17.70;96.60
23609;DHT22;11982;50.810;4.442;2024-03-17T12:27:19;17.00;99.90
23609;DHT22;11982;50.810;4.442;2024-03-17T12:29:46;16.80;99.90
23609;DHT22;11982;50.810;4.442;2024-03-17T12:32:22;16.70;99.90
23609;DHT22;11982;50.810;4.442;2024-03-17T12:34:56;16.70;99.90
23609;DHT22;11982;50.810;4.442;2024-03-17T12:37:27;16.60;99.90
23609;DHT22;11982;50.810;4.442;2024-03-17T12:40:02;17.00;99.90
23609;DHT22;11982;50.810;4.442;2024-03-17T12:42:29;17.10;99.90
23609;DHT22;11982;50.810;4.442;2024-03-17T12:47:25;17.00;99.90
23609;DHT22;11982;50.810;4.442;2024-03-17T12:49:55;17.40;98.30
23609;DHT22;11982;50.810;4.442;2024-03-17T12:57:50;16.80;99.90
23609;DHT22;11982;50.810;4.442;2024-03-17T13:00:35;16.70;99.90
23609;DHT22;11982;50.810;4.442;2024-03-17T13:03:05;16.90;99.90
23609;DHT22;11982;50.810;4.442;2024-03-17T13:05:32;17.30;99.90
23609;DHT22;11982;50.810;4.442;2024-03-17T13:07:58;17.20;99.90
23609;DHT22;11982;50.810;4.442;2024-03-17T13:10:27;17.10;98.60
23609;DHT22;11982;50.810;4.442;2024-03-17T13:13:07;16.80;99.90
23609;DHT22;11982;50.810;4.442;2024-03-17T13:15:33;16.60;99.90
23609;DHT22;11982;50.810;4.442;2024-03-17T13:18:02;16.60;99.90
23609;DHT22;11982;50.810;4.442;2024-03-17T13:20:30;16.70;99.90
23609;DHT22;11982;50.810;4.442;2024-03-17T13:22:56;16.60;99.90
23609;DHT22;11982;50.810;4.442;2024-03-17T13:25:31;16.50;99.90
23609;DHT22;11982;50.810;4.442;2024-03-17T13:28:04;16.80;99.90
23609;DHT22;11982;50.810;4.442;2024-03-17T13:30:32;16.80;99.90
23609;DHT22;11982;50.810;4.442;2024-03-17T13:33:02;16.60;99.90
23609;DHT22;11982;50.810;4.442;2024-03-17T13:35:33;16.50;99.90
23609;DHT22;11982;50.810;4.442;2024-03-17T13:38:00;16.70;99.90
23609;DHT22;11982;50.810;4.442;2024-03-17T13:40:28;16.40;99.90
23609;DHT22;11982;50.810;4.442;2024-03-17T13:42:55;15.80;99.90
23609;DHT22;11982;50.810;4.442;2024-03-17T13:45:23;15.70;99.90
23609;DHT22;11982;50.810;4.442;2024-03-17T13:48:07;15.70;99.90
23609;DHT22;11982;50.810;4.442;2024-03-17T13:50:39;15.70;99.90
23609;DHT22;11982;50.810;4.442;2024-03-17T13:53:08;15.90;99.90
23609;DHT22;11982;50.810;4.442;2024-03-17T13:55:34;16.10;99.90
23609;DHT22;11982;50.810;4.442;2024-03-17T13:58:00;16.30;99.90
23609;DHT22;11982;50.810;4.442;2024-03-17T14:00:28;16.20;99.90
23609;DHT22;11982;50.810;4.442;2024-03-17T14:02:55;16.30;99.90
23609;DHT22;11982;50.810;4.442;2024-03-17T14:05:25;16.30;99.90
23609;DHT22;11982;50.810;4.442;2024-03-17T14:07:52;16.40;99.90
23609;DHT22;11982;50.810;4.442;2024-03-17T14:10:19;16.20;99.90
23609;DHT22;11982;50.810;4.442;2024-03-17T14:12:46;16.00;99.90
23609;DHT22;11982;50.810;4.442;2024-03-17T14:15:13;15.80;99.90
23609;DHT22;11982;50.810;4.442;2024-03-17T14:17:46;15.60;99.90
23609;DHT22;11982;50.810;4.442;2024-03-17T14:20:14;15.50;99.90
23609;DHT22;11982;50.810;4.442;2024-03-17T14:22:41;15.40;99.90
23609;DHT22;11982;50.810;4.442;2024-03-17T14:25:16;15.30;99.90
23609;DHT22;11982;50.810;4.442;2024-03-17T14:27:43;15.10;99.90
23609;DHT22;11982;50.810;4.442;2024-03-17T14:30:10;14.80;99.90
23609;DHT22;11982;50.810;4.442;2024-03-17T14:32:38;14.90;99.90
23609;DHT22;11982;50.810;4.442;2024-03-17T14:35:04;14.90;99.90
23609;DHT22;11982;50.810;4.442;2024-03-17T14:37:31;14.60;99.90
23609;DHT22;11982;50.810;4.442;2024-03-17T14:39:56;14.60;99.90
23609;DHT22;11982;50.810;4.442;2024-03-17T14:42:22;14.70;99.90
23609;DHT22;11982;50.810;4.442;2024-03-17T14:44:48;14.80;99.90
23609;DHT22;11982;50.810;4.442;2024-03-17T14:47:15;14.60;99.90
23609;DHT22;11982;50.810;4.442;2024-03-17T14:49:41;14.90;99.90
23609;DHT22;11982;50.810;4.442;2024-03-17T14:52:07;15.00;99.90
23609;DHT22;11982;50.810;4.442;2024-03-17T14:54:34;15.20;99.90
23609;DHT22;11982;50.810;4.442;2024-03-17T14:56:59;15.30;99.90
23609;DHT22;11982;50.810;4.442;2024-03-17T14:59:25;15.30;99.90
23609;DHT22;11982;50.810;4.442;2024-03-17T15:01:51;15.10;99.90
23609;DHT22;11982;50.810;4.442;2024-03-17T15:04:17;14.70;99.90
23609;DHT22;11982;50.810;4.442;2024-03-17T15:06:44;14.60;99.90
23609;DHT22;11982;50.810;4.442;2024-03-17T15:09:10;14.60;99.90
23609;DHT22;11982;50.810;4.442;2024-03-17T15:11:37;14.50;99.90
23609;DHT22;11982;50.810;4.442;2024-03-17T15:14:03;14.40;99.90
23609;DHT22;11982;50.810;4.442;2024-03-17T15:16:33;14.40;99.90
23609;DHT22;11982;50.810;4.442;2024-03-17T15:18:59;14.40;99.90
23609;DHT22;11982;50.810;4.442;2024-03-17T15:21:24;14.50;99.90
23609;DHT22;11982;50.810;4.442;2024-03-17T15:23:51;14.60;99.90
23609;DHT22;11982;50.810;4.442;2024-03-17T15:26:17;14.50;99.90
23609;DHT22;11982;50.810;4.442;2024-03-17T15:28:44;14.20;99.90
23609;DHT22;11982;50.810;4.442;2024-03-17T15:31:10;14.20;99.90
23609;DHT22;11982;50.810;4.442;2024-03-17T15:33:37;14.20;99.90
23609;DHT22;11982;50.810;4.442;2024-03-17T15:36:07;14.20;99.90
23609;DHT22;11982;50.810;4.442;2024-03-17T15:38:37;14.20;99.90
23609;DHT22;11982;50.810;4.442;2024-03-17T15:41:07;14.20;99.90
23609;DHT22;11982;50.810;4.442;2024-03-17T15:43:34;14.10;99.90
23609;DHT22;11982;50.810;4.442;2024-03-17T15:46:00;13.90;99.90
23609;DHT22;11982;50.810;4.442;2024-03-17T15:48:27;13.80;99.90
23609;DHT22;11982;50.810;4.442;2024-03-17T15:50:58;13.80;99.90
23609;DHT22;11982;50.810;4.442;2024-03-17T15:53:24;13.90;99.90
23609;DHT22;11982;50.810;4.442;2024-03-17T15:55:56;13.90;99.90
23609;DHT22;11982;50.810;4.442;2024-03-17T15:58:23;14.00;99.90
23609;DHT22;11982;50.810;4.442;2024-03-17T16:00:49;14.10;99.90
23609;DHT22;11982;50.810;4.442;2024-03-17T16:03:14;14.00;99.90
23609;DHT22;11982;50.810;4.442;2024-03-17T16:05:46;13.90;99.90
23609;DHT22;11982;50.810;4.442;2024-03-17T16:08:12;13.90;99.90
23609;DHT22;11982;50.810;4.442;2024-03-17T16:10:38;13.70;99.90
23609;DHT22;11982;50.810;4.442;2024-03-17T16:13:05;13.60;99.90
23609;DHT22;11982;50.810;4.442;2024-03-17T16:15:31;13.60;99.90
23609;DHT22;11982;50.810;4.442;2024-03-17T16:17:57;13.50;99.90